createdAt,value
2019-01-02T00:02:15.017Z,16.83
2019-01-02T00:04:46.795Z,10.80
2019-01-02T00:07:18.522Z,11.77
2019-01-02T00:09:51.326Z,15.03
2019-01-02T00:12:23.074Z,14.07
2019-01-02T00:14:56.185Z,7.30
2019-01-02T00:17:31.282Z,10.33
2019-01-02T00:20:02.958Z,16.13
2019-01-02T00:22:34.612Z,10.20
2019-01-02T00:25:06.462Z,10.27
2019-01-02T00:27:38.128Z,23.87
2019-01-02T00:30:10.002Z,17.13
2019-01-02T00:32:43.522Z,16.37
2019-01-02T00:35:14.868Z,14.17
2019-01-02T00:37:47.425Z,16.97
2019-01-02T00:40:20.218Z,14.17
2019-01-02T00:42:51.804Z,12.73
2019-01-02T00:45:23.362Z,12.60
2019-01-02T00:47:55.521Z,13.33
2019-01-02T00:50:26.904Z,15.63
2019-01-02T00:52:58.511Z,15.73
2019-01-02T00:55:30.241Z,13.90
2019-01-02T00:58:01.465Z,12.30
2019-01-02T01:00:33.166Z,14.13
2019-01-02T01:03:04.461Z,16.03
2019-01-02T01:05:41.142Z,15.13
2019-01-02T01:08:12.526Z,10.00
2019-01-02T01:10:45.155Z,16.53
2019-01-02T01:13:16.516Z,15.03
2019-01-02T01:15:47.981Z,15.00
2019-01-02T01:18:19.320Z,15.20
2019-01-02T01:20:51.010Z,12.00
2019-01-02T01:23:22.281Z,8.80
2019-01-02T01:25:53.504Z,5.27
2019-01-02T01:28:24.762Z,6.73
2019-01-02T01:30:56.503Z,7.63
2019-01-02T01:33:28.055Z,3.97
2019-01-02T01:35:59.509Z,7.00
2019-01-02T01:38:30.962Z,3.07
2019-01-02T01:41:02.541Z,3.00
2019-01-02T01:43:33.912Z,8.73
2019-01-02T01:46:05.178Z,10.73
2019-01-02T01:48:36.792Z,3.90
2019-01-02T01:51:08.077Z,4.83
2019-01-02T01:53:39.410Z,8.40
2019-01-02T01:56:11.080Z,7.47
2019-01-02T01:58:42.308Z,10.63
2019-01-02T02:01:13.618Z,6.60
2019-01-02T02:03:44.851Z,5.13
2019-01-02T02:06:16.126Z,5.10
2019-01-02T02:08:47.550Z,6.50
2019-01-02T02:11:18.934Z,6.07
2019-01-02T02:13:51.009Z,10.90
2019-01-02T02:16:22.516Z,6.50
2019-01-02T02:18:53.829Z,15.03
2019-01-02T02:21:25.078Z,9.60
2019-01-02T02:23:56.712Z,8.63
2019-01-02T02:26:28.049Z,8.47
2019-01-02T02:28:59.706Z,9.40
2019-01-02T02:31:31.078Z,9.70
2019-01-02T02:34:02.617Z,8.10
2019-01-02T02:36:34.360Z,7.07
2019-01-02T02:39:08.090Z,10.37
2019-01-02T02:41:39.789Z,8.60
2019-01-02T02:44:11.382Z,8.93
2019-01-02T02:46:42.971Z,8.37
2019-01-02T02:49:14.352Z,8.77
2019-01-02T02:51:45.593Z,8.17
2019-01-02T02:54:17.192Z,6.83
2019-01-02T02:56:48.848Z,7.53
2019-01-02T02:59:20.384Z,3.17
2019-01-02T03:01:52.001Z,3.47
2019-01-02T03:04:23.557Z,7.83
2019-01-02T03:06:55.417Z,4.53
2019-01-02T03:09:26.947Z,4.53
2019-01-02T03:11:58.233Z,7.43
2019-01-02T03:14:31.837Z,7.80
2019-01-02T03:17:04.799Z,10.77
2019-01-02T03:19:36.743Z,12.83
2019-01-02T03:22:08.338Z,7.93
2019-01-02T03:24:40.003Z,10.40
2019-01-02T03:27:11.453Z,14.20
2019-01-02T03:29:42.832Z,10.23
2019-01-02T03:32:14.092Z,12.67
2019-01-02T03:34:45.643Z,16.20
2019-01-02T03:37:21.390Z,10.57
2019-01-02T03:39:52.688Z,7.97
2019-01-02T03:42:23.998Z,8.97
2019-01-02T03:44:55.233Z,12.60
2019-01-02T03:47:26.424Z,12.93
2019-01-02T03:49:57.924Z,11.30
2019-01-02T03:52:29.143Z,11.60
2019-01-02T03:55:00.325Z,15.17
2019-01-02T03:57:31.804Z,12.10
2019-01-02T04:00:03.162Z,13.17
2019-01-02T04:02:34.707Z,14.07
2019-01-02T04:05:07.453Z,10.30
2019-01-02T04:07:39.050Z,15.60
2019-01-02T04:10:12.506Z,14.67
2019-01-02T04:12:44.870Z,10.10
2019-01-02T04:15:16.780Z,12.40
2019-01-02T04:17:48.165Z,10.97
2019-01-02T04:20:19.609Z,11.37
2019-01-02T04:22:50.881Z,8.80
2019-01-02T04:25:22.087Z,8.73
2019-01-02T04:27:53.361Z,4.90
2019-01-02T04:30:24.537Z,9.67
2019-01-02T04:32:56.050Z,5.63
2019-01-02T04:35:27.268Z,8.57
2019-01-02T04:37:58.546Z,8.67
2019-01-02T04:40:29.857Z,6.17
2019-01-02T04:43:01.121Z,6.67
2019-01-02T04:45:32.385Z,5.80
2019-01-02T04:48:03.568Z,8.57
2019-01-02T04:50:34.836Z,6.10
2019-01-02T04:53:06.146Z,8.07
2019-01-02T04:55:37.577Z,6.93
2019-01-02T04:58:08.855Z,7.70
2019-01-02T05:00:40.273Z,4.50
2019-01-02T05:03:11.552Z,8.03
2019-01-02T05:05:42.888Z,5.33
2019-01-02T05:08:14.398Z,5.03
2019-01-02T05:10:47.275Z,6.63
2019-01-02T05:13:18.546Z,4.27
2019-01-02T05:15:49.701Z,5.77
2019-01-02T05:18:20.909Z,3.43
2019-01-02T05:20:52.289Z,5.90
2019-01-02T05:23:23.488Z,4.27
2019-01-02T05:25:55.475Z,4.40
2019-01-02T05:28:28.276Z,4.40
2019-01-02T05:30:59.658Z,4.57
2019-01-02T05:33:30.873Z,4.60
2019-01-02T05:36:02.239Z,3.50
2019-01-02T05:38:33.593Z,1.90
2019-01-02T05:41:05.061Z,1.27
2019-01-02T05:43:36.267Z,0.80
2019-01-02T05:46:07.471Z,1.37
2019-01-02T05:48:39.324Z,2.13
2019-01-02T05:51:10.586Z,1.33
2019-01-02T05:53:41.872Z,1.17
2019-01-02T05:56:15.880Z,0.97
2019-01-02T05:58:47.157Z,1.67
2019-01-02T06:01:18.422Z,1.20
2019-01-02T06:03:49.913Z,1.33
2019-01-02T06:06:21.186Z,1.10
2019-01-02T06:08:52.464Z,1.93
2019-01-02T06:11:27.925Z,1.17
2019-01-02T06:13:59.321Z,2.03
2019-01-02T06:16:31.976Z,1.47
2019-01-02T06:19:03.258Z,1.80
2019-01-02T06:21:34.528Z,2.27
2019-01-02T06:24:07.742Z,7.03
2019-01-02T06:26:39.052Z,2.30
2019-01-02T06:29:10.494Z,8.03
2019-01-02T06:31:41.661Z,4.10
2019-01-02T06:34:12.921Z,3.30
2019-01-02T06:36:44.100Z,3.10
2019-01-02T06:39:15.498Z,3.07
2019-01-02T06:41:46.730Z,4.03
2019-01-02T06:44:18.013Z,4.53
2019-01-02T06:46:49.836Z,4.17
2019-01-02T06:49:21.130Z,3.47
2019-01-02T06:51:52.495Z,8.30
2019-01-02T06:54:23.931Z,2.27
2019-01-02T06:56:55.250Z,3.73
2019-01-02T06:59:26.648Z,5.73
2019-01-02T07:01:58.016Z,4.63
2019-01-02T07:04:29.406Z,5.80
2019-01-02T07:07:00.653Z,5.67
2019-01-02T07:09:31.966Z,5.17
2019-01-02T07:12:03.395Z,7.03
2019-01-02T07:14:35.216Z,5.33
2019-01-02T07:17:06.479Z,4.13
2019-01-02T07:19:37.933Z,4.33
2019-01-02T07:22:09.179Z,9.83
2019-01-02T07:24:40.493Z,3.73
2019-01-02T07:27:11.820Z,4.40
2019-01-02T07:29:43.008Z,7.10
2019-01-02T07:32:14.192Z,3.47
2019-01-02T07:35:20.998Z,4.27
2019-01-02T07:38:25.693Z,5.63
2019-01-02T07:41:40.509Z,3.43
2019-01-02T07:44:41.572Z,7.87
2019-01-02T07:47:53.634Z,4.10
2019-01-02T07:51:07.159Z,6.10
2019-01-02T07:54:20.687Z,9.00
2019-01-02T07:57:35.930Z,6.23
2019-01-02T08:00:37.649Z,5.73
2019-01-02T08:03:35.742Z,9.70
2019-01-02T08:07:01.695Z,8.53
2019-01-02T08:09:57.718Z,8.33
2019-01-02T08:12:57.974Z,8.20
2019-01-02T08:16:07.276Z,8.40
2019-01-02T08:19:10.973Z,4.93
2019-01-02T08:22:19.355Z,8.63
2019-01-02T08:25:21.434Z,10.27
2019-01-02T08:28:20.528Z,7.23
2019-01-02T08:31:17.762Z,6.37
2019-01-02T08:34:31.746Z,9.53
2019-01-02T08:37:52.998Z,6.60
2019-01-02T08:41:15.232Z,7.40
2019-01-02T08:44:36.344Z,7.63
2019-01-02T08:47:34.565Z,10.50
2019-01-02T08:50:25.091Z,7.30
2019-01-02T08:53:37.307Z,6.63
2019-01-02T08:56:53.191Z,9.33
2019-01-02T09:00:11.947Z,6.23
2019-01-02T09:03:18.622Z,10.93
2019-01-02T09:06:34.641Z,10.43
2019-01-02T09:09:45.235Z,10.77
2019-01-02T09:12:49.834Z,7.23
2019-01-02T09:16:09.949Z,9.47
2019-01-02T09:19:01.446Z,7.33
2019-01-02T09:22:06.324Z,8.07
2019-01-02T09:25:09.487Z,10.80
2019-01-02T09:28:10.942Z,9.33
2019-01-02T09:34:33.711Z,11.43
2019-01-02T09:38:06.588Z,10.50
2019-01-02T09:41:03.246Z,6.30
2019-01-02T09:44:14.122Z,6.17
2019-01-02T09:47:25.352Z,8.97
2019-01-02T09:50:42.157Z,9.53
2019-01-02T09:53:26.116Z,6.57
2019-01-02T09:56:49.280Z,9.70
2019-01-02T10:00:02.875Z,9.40
2019-01-02T10:03:34.321Z,8.67
2019-01-02T10:06:45.466Z,6.27
2019-01-02T10:15:53.740Z,8.67
2019-01-02T10:19:11.871Z,10.63
2019-01-02T10:22:36.216Z,10.27
2019-01-02T10:25:49.202Z,6.10
2019-01-02T10:28:56.549Z,7.40
2019-01-02T10:32:13.249Z,8.73
2019-01-02T10:35:40.033Z,7.70
2019-01-02T10:38:51.171Z,12.93
2019-01-02T10:42:07.350Z,8.57
2019-01-02T10:45:30.877Z,8.23
2019-01-02T10:48:15.706Z,9.97
2019-01-02T10:51:32.148Z,4.93
2019-01-02T10:54:38.696Z,5.13
2019-01-02T10:57:48.395Z,8.33
2019-01-02T11:00:56.557Z,9.37
2019-01-02T11:04:08.996Z,8.03
2019-01-02T11:07:30.364Z,5.63
2019-01-02T11:10:29.944Z,11.30
2019-01-02T11:13:41.309Z,7.03
2019-01-02T11:16:48.970Z,4.73
2019-01-02T11:19:56.993Z,5.17
2019-01-02T11:23:14.691Z,5.77
2019-01-02T11:26:20.519Z,5.70
2019-01-02T11:29:35.066Z,7.80
2019-01-02T11:32:36.566Z,4.10
2019-01-02T11:35:44.064Z,10.70
2019-01-02T11:38:50.367Z,6.90
2019-01-02T11:41:32.871Z,9.50
2019-01-02T11:45:03.206Z,7.90
2019-01-02T11:47:34.655Z,8.60
2019-01-02T11:50:08.417Z,7.73
2019-01-02T11:52:40.960Z,5.07
2019-01-02T11:55:12.881Z,7.67
2019-01-02T11:57:44.135Z,5.93
2019-01-02T12:00:16.520Z,9.53
2019-01-02T12:02:48.202Z,5.93
2019-01-02T12:05:19.464Z,10.97
2019-01-02T12:07:50.743Z,12.33
2019-01-02T12:10:22.197Z,7.60
2019-01-02T12:12:53.591Z,7.87
2019-01-02T12:15:24.870Z,4.67
2019-01-02T12:17:56.405Z,5.90
2019-01-02T12:20:27.695Z,7.33
2019-01-02T12:23:03.458Z,9.93
2019-01-02T12:25:38.618Z,5.27
2019-01-02T12:28:09.797Z,6.57
2019-01-02T12:30:41.078Z,6.87
2019-01-02T12:33:12.354Z,6.77
2019-01-02T12:35:44.966Z,7.67
2019-01-02T12:38:16.143Z,5.67
2019-01-02T12:40:47.515Z,11.00
2019-01-02T12:43:18.909Z,3.40
2019-01-02T12:45:50.429Z,6.20
2019-01-02T12:48:21.742Z,5.67
2019-01-02T12:50:53.631Z,6.70
2019-01-02T12:53:25.135Z,7.43
2019-01-02T12:55:56.465Z,7.47
2019-01-02T12:58:27.834Z,9.37
2019-01-02T13:01:05.429Z,8.63
2019-01-02T13:04:13.637Z,5.17
2019-01-02T13:07:32.037Z,6.90
2019-01-02T13:10:25.526Z,19.87
2019-01-02T13:13:41.068Z,8.37
2019-01-02T13:16:37.665Z,12.53
2019-01-02T13:20:01.600Z,7.60
2019-01-02T13:23:16.348Z,11.50
2019-01-02T13:25:53.453Z,13.30
2019-01-02T13:28:47.197Z,10.37
2019-01-02T13:32:14.640Z,14.57
2019-01-02T13:35:36.089Z,5.23
2019-01-02T13:38:37.460Z,10.40
2019-01-02T13:41:32.066Z,10.03
2019-01-02T13:44:34.449Z,9.33
2019-01-02T13:47:56.578Z,6.70
2019-01-02T13:50:56.249Z,8.40
2019-01-02T13:53:27.527Z,6.23
2019-01-02T13:55:58.839Z,14.83
2019-01-02T13:58:30.873Z,10.93
2019-01-02T14:01:02.221Z,8.33
2019-01-02T14:03:33.473Z,8.93
2019-01-02T14:06:04.847Z,8.23
2019-01-02T14:08:36.350Z,5.97
2019-01-02T14:11:07.659Z,11.43
2019-01-02T14:13:39.016Z,5.53
2019-01-02T14:16:10.413Z,9.00
2019-01-02T14:18:41.597Z,9.63
2019-01-02T14:21:12.883Z,10.73
2019-01-02T14:23:44.177Z,11.50
2019-01-02T14:26:15.703Z,9.33
2019-01-02T14:28:46.991Z,9.93
2019-01-02T14:31:19.673Z,8.93
2019-01-02T14:33:51.037Z,7.63
2019-01-02T14:36:22.808Z,7.93
2019-01-02T14:38:57.372Z,8.47
2019-01-02T14:41:33.872Z,4.77
2019-01-02T14:44:12.356Z,4.70
2019-01-02T14:46:43.898Z,10.00
2019-01-02T14:49:15.609Z,3.17
2019-01-02T14:51:49.138Z,8.03
2019-01-02T14:54:20.415Z,5.30
2019-01-02T14:56:52.434Z,10.20
2019-01-02T14:59:24.663Z,9.80
2019-01-02T15:01:59.383Z,8.33
2019-01-02T15:04:31.075Z,6.47
2019-01-02T15:07:02.706Z,4.40
2019-01-02T15:09:34.919Z,5.23
2019-01-02T15:12:06.655Z,5.37
2019-01-02T15:14:37.957Z,8.80
2019-01-02T15:17:09.364Z,8.97
2019-01-02T15:19:42.774Z,11.37
2019-01-02T15:22:14.142Z,6.30
2019-01-02T15:24:49.434Z,7.83
2019-01-02T15:27:18.552Z,10.90
2019-01-02T15:29:50.152Z,9.67
2019-01-02T15:32:21.566Z,9.63
2019-01-02T15:34:52.929Z,10.60
2019-01-02T15:37:24.305Z,11.13
2019-01-02T15:39:55.719Z,15.57
2019-01-02T15:42:27.133Z,9.10
2019-01-02T15:44:58.633Z,14.80
2019-01-02T15:47:30.171Z,23.77
2019-01-02T15:50:01.573Z,6.67
2019-01-02T15:52:33.178Z,11.97
2019-01-02T15:55:04.590Z,9.67
2019-01-02T15:57:36.126Z,7.73
2019-01-02T16:00:09.641Z,8.27
2019-01-02T16:02:42.838Z,10.00
2019-01-02T16:05:14.703Z,7.70
2019-01-02T16:07:48.907Z,6.13
2019-01-02T16:11:17.882Z,7.40
2019-01-02T16:13:49.217Z,8.77
2019-01-02T16:16:20.513Z,6.17
2019-01-02T16:19:07.460Z,12.50
2019-01-02T16:21:38.966Z,9.73
2019-01-02T16:24:10.607Z,13.80
2019-01-02T16:26:41.949Z,17.37
2019-01-02T16:29:13.133Z,14.57
2019-01-02T16:31:44.380Z,8.60
2019-01-02T16:34:16.349Z,9.43
2019-01-02T16:36:47.874Z,12.10
2019-01-02T16:39:19.832Z,14.27
2019-01-02T16:41:51.231Z,13.27
2019-01-02T16:44:22.658Z,8.90
2019-01-02T16:46:53.945Z,9.27
2019-01-02T16:49:25.233Z,14.80
2019-01-02T16:51:56.583Z,28.30
2019-01-02T16:54:27.843Z,9.77
2019-01-02T16:56:59.167Z,10.87
2019-01-02T16:59:31.059Z,11.43
2019-01-02T17:02:02.389Z,13.57
2019-01-02T17:04:33.773Z,9.00
2019-01-02T17:07:05.101Z,11.00
2019-01-02T17:09:36.806Z,9.37
2019-01-02T17:12:08.108Z,14.47
2019-01-02T17:14:39.456Z,10.13
2019-01-02T17:17:11.150Z,11.33
2019-01-02T17:19:44.584Z,10.57
2019-01-02T17:22:15.918Z,9.00
2019-01-02T17:24:47.234Z,9.60
2019-01-02T17:27:18.485Z,9.13
2019-01-02T17:29:49.904Z,10.20
2019-01-02T17:32:21.253Z,13.53
2019-01-02T17:34:52.461Z,13.10
2019-01-02T17:37:23.742Z,12.93
2019-01-02T17:39:55.128Z,18.23
2019-01-02T17:42:26.487Z,14.83
2019-01-02T17:44:58.013Z,11.93
2019-01-02T17:47:29.333Z,11.13
2019-01-02T17:50:00.573Z,8.53
2019-01-02T17:52:32.183Z,10.80
2019-01-02T17:55:03.568Z,12.30
2019-01-02T17:57:34.823Z,9.47
2019-01-02T18:00:08.812Z,12.10
2019-01-02T18:02:40.824Z,11.00
2019-01-02T18:05:12.368Z,12.63
2019-01-02T18:07:43.622Z,10.07
2019-01-02T18:10:15.323Z,15.33
2019-01-02T18:12:46.661Z,15.87
2019-01-02T18:15:18.136Z,10.87
2019-01-02T18:17:50.924Z,11.17
2019-01-02T18:20:22.205Z,9.13
2019-01-02T18:22:53.578Z,13.97
2019-01-02T18:25:24.858Z,11.57
2019-01-02T18:27:56.228Z,13.83
2019-01-02T18:30:27.605Z,66.63
2019-01-02T18:32:59.086Z,25.47
2019-01-02T18:35:32.299Z,16.93
2019-01-02T18:38:03.539Z,15.70
2019-01-02T18:40:34.819Z,34.60
2019-01-02T18:43:06.108Z,42.20
2019-01-02T18:45:37.495Z,31.50
2019-01-02T18:48:08.963Z,33.17
2019-01-02T18:50:40.789Z,24.97
2019-01-02T18:53:13.583Z,20.83
2019-01-02T18:55:45.073Z,24.93
2019-01-02T18:58:16.408Z,22.87
2019-01-02T19:00:47.793Z,20.43
2019-01-02T19:03:20.865Z,21.60
2019-01-02T19:05:52.944Z,16.07
2019-01-02T19:08:24.241Z,14.23
2019-01-02T19:10:55.528Z,16.93
2019-01-02T19:13:29.519Z,12.53
2019-01-02T19:16:00.813Z,17.70
2019-01-02T19:18:32.494Z,16.47
2019-01-02T19:21:03.757Z,18.17
2019-01-02T19:23:35.071Z,15.03
2019-01-02T19:26:06.774Z,14.27
2019-01-02T19:28:38.638Z,13.07
2019-01-02T19:31:09.917Z,13.87
2019-01-02T19:33:41.355Z,14.77
2019-01-02T19:36:12.782Z,10.57
2019-01-02T19:38:44.960Z,13.13
2019-01-02T19:41:16.533Z,11.90
2019-01-02T19:43:47.964Z,10.37
2019-01-02T19:46:19.395Z,10.37
2019-01-02T19:48:50.816Z,9.80
2019-01-02T19:51:22.207Z,9.70
2019-01-02T19:53:53.557Z,10.70
2019-01-02T19:56:24.758Z,9.63
2019-01-02T19:58:56.100Z,11.30
2019-01-02T20:01:27.388Z,6.53
2019-01-02T20:03:58.647Z,13.50
2019-01-02T20:06:30.285Z,9.97
2019-01-02T20:09:03.637Z,5.40
2019-01-02T20:11:34.854Z,10.23
2019-01-02T20:14:06.159Z,11.20
2019-01-02T20:16:37.609Z,10.63
2019-01-02T20:19:09.170Z,9.93
2019-01-02T20:21:40.559Z,9.97
2019-01-02T20:24:11.857Z,9.53
2019-01-02T20:26:43.202Z,11.73
2019-01-02T20:29:14.617Z,9.37
2019-01-02T20:31:46.087Z,14.07
2019-01-02T20:34:17.499Z,14.63
2019-01-02T20:36:48.817Z,18.63
2019-01-02T20:39:20.128Z,15.00
2019-01-02T20:41:51.580Z,11.97
2019-01-02T20:44:22.915Z,17.37
2019-01-02T20:46:54.422Z,16.63
2019-01-02T20:49:25.680Z,16.33
2019-01-02T20:51:56.969Z,11.43
2019-01-02T20:54:28.287Z,10.67
2019-01-02T20:56:59.729Z,11.77
2019-01-02T20:59:30.996Z,11.00
2019-01-02T21:02:02.443Z,14.80
2019-01-02T21:04:33.776Z,14.40
2019-01-02T21:07:05.042Z,14.67
2019-01-02T21:09:37.319Z,19.37
2019-01-02T21:12:08.786Z,16.43
2019-01-02T21:14:40.447Z,17.80
2019-01-02T21:17:13.522Z,11.40
2019-01-02T21:19:44.820Z,9.57
2019-01-02T21:22:16.127Z,19.17
2019-01-02T21:24:48.341Z,16.47
2019-01-02T21:27:19.737Z,15.70
2019-01-02T21:29:50.980Z,8.60
2019-01-02T21:32:22.278Z,13.33
2019-01-02T21:34:53.552Z,22.97
2019-01-02T21:37:24.753Z,61.77
2019-01-02T21:40:01.036Z,66.00
2019-01-02T21:42:32.512Z,128.37
2019-01-02T21:45:04.067Z,137.57
2019-01-02T21:47:36.477Z,114.23
2019-01-02T21:50:08.311Z,93.60
2019-01-02T21:52:41.243Z,58.23
2019-01-02T21:55:20.145Z,52.00
2019-01-02T21:57:51.518Z,38.80
2019-01-02T22:00:22.936Z,23.67
2019-01-02T22:02:54.408Z,25.93
2019-01-02T22:05:25.785Z,21.33
2019-01-02T22:07:57.041Z,22.00
2019-01-02T22:10:28.281Z,18.63
2019-01-02T22:12:59.486Z,14.43
2019-01-02T22:15:30.697Z,9.33
2019-01-02T22:18:03.341Z,11.90
2019-01-02T22:20:44.629Z,9.33
2019-01-02T22:23:16.826Z,10.03
2019-01-02T22:25:51.262Z,8.47
2019-01-02T22:28:22.682Z,6.87
2019-01-02T22:30:54.128Z,12.37
2019-01-02T22:33:27.859Z,7.17
2019-01-02T22:36:01.317Z,6.17
2019-01-02T22:38:32.692Z,4.13
2019-01-02T22:41:03.852Z,5.03
2019-01-02T22:43:35.462Z,8.97
2019-01-02T22:46:06.730Z,5.83
2019-01-02T22:48:38.346Z,7.97
2019-01-02T22:51:09.597Z,8.50
2019-01-02T22:53:40.974Z,7.43
2019-01-02T22:56:12.277Z,8.47
2019-01-02T22:58:43.926Z,4.77
2019-01-02T23:01:22.695Z,4.23
2019-01-02T23:04:11.740Z,4.83
2019-01-02T23:07:00.588Z,7.50
2019-01-02T23:09:49.673Z,8.53
2019-01-02T23:12:38.633Z,4.87
2019-01-02T23:15:37.914Z,8.30
2019-01-02T23:18:34.496Z,4.67
2019-01-02T23:21:37.443Z,4.03
2019-01-02T23:24:22.952Z,4.50
2019-01-02T23:27:15.278Z,5.30
2019-01-02T23:30:04.605Z,9.50
2019-01-02T23:33:08.524Z,6.80
2019-01-02T23:35:49.838Z,4.77
2019-01-02T23:38:38.816Z,7.00
2019-01-02T23:41:32.005Z,7.13
2019-01-02T23:44:20.611Z,3.87
2019-01-02T23:47:26.001Z,3.70
2019-01-02T23:50:21.493Z,3.93
2019-01-02T23:53:10.280Z,4.10
2019-01-02T23:56:09.462Z,3.23
2019-01-02T23:59:05.553Z,6.37
